Time;durP1;ratioP1;P1;durP2;ratioP2;P2;SDS_P1;SDS_P2;PMS_P1;PMS_P2;Temp;Humidity;BMP_temperature;BMP_pressure;BME280_temperature;BME280_humidity;BME280_pressure;Samples;Min_cycle;Max_cycle;Signal;HPM_P1;HPM_P2
2022/11/04 00:02:50;;;;;;;59.88;44.58;;;22.90;55.50;;;;;;4745213;55;21018;-37
2022/11/04 00:13:11;;;;;;;59.58;45.58;;;22.90;55.50;;;;;;4745233;55;21062;-30
2022/11/04 00:18:12;;;;;;;63.83;46.88;;;22.90;55.60;;;;;;4744650;59;21113;-38
2022/11/04 00:28:43;;;;;;;56.28;44.60;;;22.90;55.40;;;;;;4744497;55;21074;-32
2022/11/04 00:33:45;;;;;;;57.45;44.58;;;22.90;55.50;;;;;;4892996;55;21144;-37
2022/11/04 00:38:46;;;;;;;58.45;45.45;;;22.90;55.60;;;;;;4928160;55;21071;-40
2022/11/04 00:43:47;;;;;;;57.95;45.12;;;22.90;55.60;;;;;;4969264;55;21054;-37
2022/11/04 00:48:48;;;;;;;59.20;44.75;;;22.90;55.50;;;;;;4921962;55;21058;-30
2022/11/04 00:53:50;;;;;;;57.72;42.50;;;22.90;55.50;;;;;;4824382;55;21009;-28
2022/11/04 00:58:51;;;;;;;55.25;43.55;;;22.90;55.50;;;;;;4829296;55;21124;-30
2022/11/04 01:03:53;;;;;;;58.53;44.17;;;22.90;55.40;;;;;;4795347;55;20997;-30
2022/11/04 01:08:59;;;;;;;55.65;42.85;;;22.90;55.50;;;;;;4863408;55;21062;-38
2022/11/04 01:14:00;;;;;;;55.43;42.53;;;22.90;55.50;;;;;;4839398;55;21041;-39
2022/11/04 01:19:01;;;;;;;55.25;43.22;;;22.90;55.60;;;;;;4804515;55;21104;-29
2022/11/04 01:24:03;;;;;;;55.78;43.53;;;22.90;55.50;;;;;;4745506;56;21591;-41
2022/11/04 01:29:03;;;;;;;58.80;43.03;;;22.90;55.60;;;;;;4797521;55;21010;-42
2022/11/04 01:34:04;;;;;;;56.45;43.08;;;22.90;55.50;;;;;;4815523;55;21070;-30
2022/11/04 01:39:05;;;;;;;53.95;42.08;;;22.90;55.50;;;;;;4992902;55;21025;-42
2022/11/04 01:44:45;;;;;;;52.97;40.58;;;22.90;55.50;;;;;;4790130;55;21030;-36
2022/11/04 01:50:33;;;;;;;54.03;41.67;;;22.90;55.40;;;;;;4744975;59;21006;-30
2022/11/04 01:55:41;;;;;;;52.10;40.92;;;22.90;55.50;;;;;;5067722;55;21057;-37
2022/11/04 02:00:43;;;;;;;54.15;40.63;;;23.00;55.50;;;;;;4939146;55;21085;-31
2022/11/04 02:05:46;;;;;;;50.03;39.22;;;22.90;55.50;;;;;;5060061;55;21061;-30
2022/11/04 02:10:54;;;;;;;51.40;39.40;;;22.90;55.40;;;;;;4779521;55;20998;-36
2022/11/04 02:16:15;;;;;;;51.10;40.63;;;22.90;55.40;;;;;;4745679;59;21013;-37
2022/11/04 02:27:46;;;;;;;51.65;40.22;;;22.90;55.30;;;;;;4764317;55;21053;-38
2022/11/04 02:34:51;;;;;;;53.92;41.05;;;22.90;55.30;;;;;;5070021;55;21388;-41
2022/11/04 02:44:30;;;;;;;50.00;39.35;;;22.90;55.20;;;;;;4891699;55;21073;-31
2022/11/04 02:49:49;;;;;;;49.72;38.10;;;22.90;55.20;;;;;;4910831;55;21006;-46
2022/11/04 02:54:59;;;;;;;48.08;37.50;;;22.90;55.40;;;;;;4834773;55;20995;-30
2022/11/04 03:00:12;;;;;;;46.78;36.00;;;22.90;55.30;;;;;;5030918;55;20996;-33
2022/11/04 03:05:18;;;;;;;47.42;36.78;;;22.90;55.40;;;;;;4785711;55;21480;-31
2022/11/04 03:10:31;;;;;;;48.83;38.30;;;22.90;55.30;;;;;;4745468;59;20982;-34
2022/11/04 03:15:36;;;;;;;45.75;35.30;;;22.90;55.20;;;;;;4745942;59;20974;-35
2022/11/04 03:20:40;;;;;;;46.78;36.92;;;22.90;55.30;;;;;;4744952;59;21030;-38
2022/11/04 03:25:44;;;;;;;46.42;36.58;;;22.90;55.30;;;;;;4745689;55;21602;-39
2022/11/04 03:30:48;;;;;;;45.95;36.38;;;22.90;55.30;;;;;;4767311;55;20985;-30
2022/11/04 03:35:49;;;;;;;43.53;35.67;;;22.90;55.30;;;;;;5231130;55;21491;-36
2022/11/04 03:40:50;;;;;;;44.58;35.08;;;22.90;55.40;;;;;;5054219;55;21005;-29
2022/11/04 03:45:51;;;;;;;44.88;34.90;;;22.90;55.20;;;;;;4745332;59;21025;-30
2022/11/04 03:50:52;;;;;;;44.28;35.40;;;22.80;55.20;;;;;;4770465;55;20998;-29
2022/11/04 03:57:40;;;;;;;43.65;34.40;;;22.80;55.30;;;;;;4745427;59;20990;-35
2022/11/04 04:03:30;;;;;;;41.70;33.97;;;22.90;55.10;;;;;;5030859;55;21005;-34
2022/11/04 04:08:52;;;;;;;42.65;34.05;;;22.90;55.30;;;;;;4899253;55;21026;-29
2022/11/04 04:14:05;;;;;;;46.00;35.35;;;22.80;55.30;;;;;;5027987;55;20982;-31
2022/11/04 04:19:17;;;;;;;40.78;32.55;;;22.80;55.10;;;;;;4752748;55;21078;-29
2022/11/04 04:29:43;;;;;;;42.65;32.85;;;22.80;55.20;;;;;;4744352;55;21010;-30
2022/11/04 04:34:44;;;;;;;39.78;32.63;;;22.80;55.20;;;;;;4805182;55;21002;-29
2022/11/04 04:45:24;;;;;;;40.97;32.45;;;22.80;55.10;;;;;;4745079;55;21050;-29
2022/11/04 04:50:50;;;;;;;39.85;31.92;;;22.80;55.10;;;;;;5043802;55;20979;-36
2022/11/04 04:55:50;;;;;;;39.80;31.75;;;22.80;55.00;;;;;;5106323;55;20978;-30
2022/11/04 05:00:51;;;;;;;39.47;31.35;;;22.80;55.10;;;;;;4953565;55;21013;-35
2022/11/04 05:05:52;;;;;;;40.95;31.65;;;22.80;55.10;;;;;;4995367;55;21073;-31
2022/11/04 05:10:53;;;;;;;38.03;31.02;;;22.80;55.10;;;;;;4850477;55;20982;-32
2022/11/04 05:15:54;;;;;;;41.60;31.12;;;22.80;55.10;;;;;;4923480;55;21539;-39
2022/11/04 05:20:55;;;;;;;40.70;31.73;;;22.80;55.10;;;;;;4744707;59;21030;-33
2022/11/04 05:25:57;;;;;;;37.38;29.60;;;22.80;55.10;;;;;;4745445;59;21081;-33
2022/11/04 05:31:03;;;;;;;37.25;30.88;;;22.80;55.00;;;;;;4954761;55;21018;-31
2022/11/04 05:36:12;;;;;;;38.15;30.45;;;22.80;55.00;;;;;;4745574;57;21566;-37
2022/11/04 05:41:24;;;;;;;39.47;30.37;;;22.80;54.90;;;;;;5076832;55;20986;-36
2022/11/04 05:46:26;;;;;;;39.47;31.20;;;22.90;55.00;;;;;;5018101;55;21480;-37
2022/11/04 05:51:27;;;;;;;35.55;29.20;;;22.80;54.90;;;;;;4881534;55;20990;-39
2022/11/04 05:56:28;;;;;;;39.50;30.42;;;22.80;54.90;;;;;;4789415;55;21483;-30
2022/11/04 06:01:40;;;;;;;37.47;30.65;;;22.80;54.90;;;;;;5103672;55;21014;-31
2022/11/04 06:06:41;;;;;;;36.70;28.87;;;22.80;54.90;;;;;;4892983;55;21053;-31
2022/11/04 06:11:42;;;;;;;35.35;28.33;;;22.80;54.80;;;;;;4965701;55;21013;-30
2022/11/04 06:16:43;;;;;;;36.13;29.42;;;22.80;54.90;;;;;;4784840;55;21606;-31
2022/11/04 06:21:44;;;;;;;35.13;28.75;;;22.80;54.80;;;;;;4843766;55;21066;-31
2022/11/04 06:26:45;;;;;;;34.70;28.65;;;22.80;54.90;;;;;;4782076;55;21006;-30
2022/11/04 06:31:45;;;;;;;35.03;28.10;;;22.80;54.80;;;;;;4861744;55;21077;-30
2022/11/04 06:36:48;;;;;;;32.63;26.45;;;22.80;54.70;;;;;;4879682;55;21002;-30
2022/11/04 06:41:49;;;;;;;38.03;30.02;;;22.80;54.80;;;;;;4786254;55;21002;-28
2022/11/04 06:46:50;;;;;;;36.85;28.58;;;22.80;54.80;;;;;;4951793;55;21547;-29
2022/11/04 06:51:51;;;;;;;38.30;29.73;;;22.80;54.70;;;;;;4745305;59;20981;-29
2022/11/04 06:56:52;;;;;;;34.80;27.65;;;22.80;54.70;;;;;;4777525;55;21552;-29
2022/11/04 07:01:52;;;;;;;35.15;27.70;;;22.80;54.60;;;;;;4745435;59;21077;-31
2022/11/04 07:06:53;;;;;;;38.55;28.70;;;22.80;54.70;;;;;;4745016;59;21013;-30
2022/11/04 07:11:54;;;;;;;36.85;29.20;;;22.70;54.40;;;;;;4812873;55;21049;-29
2022/11/04 07:16:55;;;;;;;35.90;29.17;;;22.70;54.50;;;;;;4986885;55;21560;-29
2022/11/04 07:21:56;;;;;;;35.78;28.70;;;22.80;54.50;;;;;;4745073;59;21065;-30
2022/11/04 07:26:57;;;;;;;37.83;29.65;;;22.70;54.50;;;;;;4744605;59;21102;-27
2022/11/04 07:31:58;;;;;;;37.55;28.58;;;22.70;54.50;;;;;;4757084;55;21123;-30
2022/11/04 07:36:59;;;;;;;37.80;30.02;;;22.70;54.60;;;;;;4744796;59;21077;-30
2022/11/04 07:42:00;;;;;;;40.08;30.52;;;22.80;54.50;;;;;;4776542;55;21053;-31
2022/11/04 07:47:00;;;;;;;40.92;30.77;;;22.70;54.40;;;;;;4808449;55;21155;-31
2022/11/04 07:52:01;;;;;;;38.83;29.92;;;22.70;54.50;;;;;;4746548;55;21559;-29
2022/11/04 07:57:02;;;;;;;36.15;29.55;;;22.70;54.40;;;;;;4745089;55;21005;-33
2022/11/04 08:02:03;;;;;;;42.50;31.90;;;22.80;54.50;;;;;;4742716;59;21090;-29
2022/11/04 08:07:07;;;;;;;45.92;33.47;;;22.80;54.60;;;;;;4744364;59;21073;-43
2022/11/04 08:12:08;;;;;;;43.67;32.97;;;22.80;54.50;;;;;;4792498;55;21014;-41
2022/11/04 08:17:09;;;;;;;49.50;34.30;;;22.90;54.40;;;;;;4856207;55;21086;-28
2022/11/04 08:22:10;;;;;;;43.15;33.92;;;23.00;54.30;;;;;;4782712;55;20989;-33
2022/11/04 08:27:11;;;;;;;44.88;33.53;;;23.00;54.20;;;;;;4787976;55;21014;-31
2022/11/04 08:32:14;;;;;;;48.70;36.45;;;22.90;54.20;;;;;;4759100;55;21567;-42
2022/11/04 08:37:16;;;;;;;49.80;38.25;;;22.90;54.20;;;;;;4829865;55;21484;-32
2022/11/04 08:42:17;;;;;;;54.78;37.42;;;23.00;54.40;;;;;;4745565;59;20974;-34
2022/11/04 08:47:17;;;;;;;53.97;40.10;;;23.00;54.40;;;;;;4873590;55;21018;-33
2022/11/04 08:52:18;;;;;;;60.00;41.70;;;23.00;54.40;;;;;;4790185;55;20998;-36
2022/11/04 08:57:19;;;;;;;60.47;41.33;;;23.00;54.40;;;;;;4787487;55;20995;-41
2022/11/04 09:02:20;;;;;;;58.38;41.17;;;23.00;54.40;;;;;;4805210;55;21002;-39
2022/11/04 09:07:21;;;;;;;65.95;44.75;;;23.00;54.50;;;;;;4827232;55;21061;-36
2022/11/04 09:12:21;;;;;;;61.80;43.25;;;23.10;55.10;;;;;;4847531;55;21057;-35
2022/11/04 09:17:22;;;;;;;70.78;45.80;;;23.10;55.20;;;;;;4850213;55;21161;-31
2022/11/04 09:22:23;;;;;;;74.18;47.60;;;23.20;55.30;;;;;;4817203;55;21061;-37
2022/11/04 09:27:24;;;;;;;83.62;49.47;;;23.20;55.50;;;;;;4798498;55;21014;-38
2022/11/04 09:32:25;;;;;;;85.62;52.88;;;23.20;55.50;;;;;;4745604;59;21053;-40
2022/11/04 09:37:26;;;;;;;91.63;55.42;;;23.20;55.60;;;;;;4767709;55;21063;-47
2022/11/04 09:47:33;;;;;;;99.15;58.17;;;23.20;55.80;;;;;;4744680;59;21708;-42
2022/11/04 09:52:39;;;;;;;106.55;63.58;;;23.30;56.10;;;;;;4745331;55;21619;-43
2022/11/04 09:57:39;;;;;;;111.95;67.68;;;23.30;56.10;;;;;;4822570;55;21006;-33
2022/11/04 10:04:04;;;;;;;109.05;66.70;;;23.30;56.30;;;;;;4853617;55;21006;-37
2022/11/04 10:10:48;;;;;;;112.70;71.75;;;23.40;56.30;;;;;;4744320;59;21077;-40
2022/11/04 10:18:38;;;;;;;121.78;79.95;;;23.40;56.60;;;;;;4778930;55;21014;-41
2022/11/04 10:23:44;;;;;;;133.70;83.75;;;23.40;57.20;;;;;;4811252;55;21121;-37
2022/11/04 10:29:03;;;;;;;145.20;85.97;;;23.40;56.90;;;;;;4798937;55;21058;-35
2022/11/04 10:34:14;;;;;;;138.02;91.68;;;23.40;56.80;;;;;;4832259;55;21010;-43
2022/11/04 10:39:30;;;;;;;141.98;96.65;;;23.40;57.30;;;;;;4814517;55;20986;-37
2022/11/04 10:44:34;;;;;;;157.93;101.35;;;23.30;56.40;;;;;;4835956;55;21101;-39
2022/11/04 10:57:23;;;;;;;155.95;101.45;;;23.30;56.60;;;;;;4878701;55;21339;-37
2022/11/04 11:04:32;;;;;;;153.45;99.55;;;23.30;56.50;;;;;;4799221;55;21492;-41
2022/11/04 11:10:08;;;;;;;150.15;98.07;;;23.40;56.50;;;;;;4744212;59;21117;-33
2022/11/04 11:15:37;;;;;;;148.02;99.07;;;23.40;57.00;;;;;;4863585;55;21006;-38
2022/11/04 11:20:39;;;;;;;145.05;98.43;;;23.40;57.10;;;;;;4744306;55;21034;-35
2022/11/04 11:25:49;;;;;;;154.73;99.90;;;23.40;57.30;;;;;;5044951;55;20994;-38
2022/11/04 11:31:03;;;;;;;143.90;97.68;;;23.50;57.50;;;;;;4822204;55;21058;-39
2022/11/04 11:36:19;;;;;;;144.95;99.55;;;23.50;57.60;;;;;;4744832;59;21543;-47
2022/11/04 11:41:27;;;;;;;145.40;100.35;;;23.50;57.30;;;;;;4744935;59;21050;-42
2022/11/04 11:46:31;;;;;;;155.55;105.90;;;23.50;57.10;;;;;;4821632;55;21481;-45
2022/11/04 11:51:40;;;;;;;148.75;103.45;;;23.50;57.00;;;;;;4770176;55;21157;-34
2022/11/04 11:56:44;;;;;;;146.82;104.28;;;23.50;57.10;;;;;;4745142;59;20982;-40
2022/11/04 12:02:56;;;;;;;158.55;110.32;;;23.50;57.00;;;;;;4852789;55;21017;-37
2022/11/04 12:08:20;;;;;;;138.93;99.43;;;23.50;56.90;;;;;;4761214;55;21110;-43
2022/11/04 12:13:34;;;;;;;141.43;97.28;;;23.30;57.40;;;;;;4853160;55;21002;-39
2022/11/04 12:24:12;;;;;;;142.68;98.78;;;23.50;57.70;;;;;;4744507;59;21568;-34
2022/11/04 12:30:00;;;;;;;140.43;99.95;;;23.50;57.60;;;;;;4861467;55;21606;-43
2022/11/04 12:38:51;;;;;;;136.18;99.72;;;23.60;57.90;;;;;;4836077;55;21022;-33
2022/11/04 12:44:27;;;;;;;142.27;99.37;;;23.60;57.90;;;;;;4966673;55;21488;-39
2022/11/04 12:49:55;;;;;;;141.70;99.37;;;23.50;57.60;;;;;;4744096;59;21074;-41
2022/11/04 12:55:33;;;;;;;142.77;102.80;;;23.50;57.80;;;;;;4811906;55;21479;-37
2022/11/04 13:00:37;;;;;;;143.20;99.03;;;23.50;57.70;;;;;;4796659;55;21054;-40
2022/11/04 13:05:57;;;;;;;132.82;97.18;;;23.50;57.80;;;;;;4744811;59;20998;-35
2022/11/04 13:12:51;;;;;;;134.02;94.70;;;23.50;57.70;;;;;;4761959;55;21002;-40
2022/11/04 13:18:00;;;;;;;135.55;96.47;;;23.50;57.90;;;;;;4850661;55;21022;-35
2022/11/04 13:23:06;;;;;;;131.37;91.70;;;23.50;57.80;;;;;;4787542;55;20950;-39
2022/11/04 13:28:12;;;;;;;133.67;95.00;;;23.40;57.90;;;;;;4842909;55;21084;-44
2022/11/04 13:35:22;;;;;;;125.50;86.45;;;23.40;58.00;;;;;;4826239;55;21436;-36
2022/11/04 13:43:40;;;;;;;141.80;96.32;;;23.40;58.30;;;;;;4745418;59;20995;-39
2022/11/04 13:49:18;;;;;;;160.52;110.18;;;23.30;58.80;;;;;;4997554;55;21563;-32
2022/11/04 13:54:40;;;;;;;144.77;105.32;;;23.20;59.30;;;;;;4861088;55;20982;-48
2022/11/04 14:00:04;;;;;;;136.25;91.37;;;23.20;59.60;;;;;;4833410;55;21460;-38
2022/11/04 14:06:07;;;;;;;133.98;92.65;;;23.20;59.90;;;;;;4981443;55;20986;-37
2022/11/04 14:11:10;;;;;;;119.18;86.00;;;23.20;59.90;;;;;;4745440;59;21146;-42
2022/11/04 14:16:44;;;;;;;118.90;84.70;;;23.10;60.50;;;;;;4802348;55;21144;-34
2022/11/04 14:22:06;;;;;;;115.12;81.10;;;23.10;60.30;;;;;;4765056;55;20991;-30
2022/11/04 14:27:24;;;;;;;109.22;72.72;;;23.10;60.40;;;;;;4793399;55;21567;-35
2022/11/04 14:32:32;;;;;;;104.30;70.80;;;23.00;60.80;;;;;;4766172;55;21006;-31
2022/11/04 14:37:35;;;;;;;107.57;70.12;;;23.00;61.10;;;;;;4750706;55;21006;-38
2022/11/04 14:42:54;;;;;;;94.32;65.65;;;23.10;61.00;;;;;;4761958;55;21491;-29
2022/11/04 14:48:20;;;;;;;96.07;63.85;;;23.10;60.90;;;;;;4845265;55;21528;-38
2022/11/04 14:53:33;;;;;;;85.87;62.22;;;23.20;60.70;;;;;;4745746;59;21507;-45
2022/11/04 14:58:35;;;;;;;97.72;67.00;;;23.10;60.50;;;;;;4745147;59;20982;-39
2022/11/04 15:03:38;;;;;;;89.00;63.58;;;23.10;60.70;;;;;;4745043;59;21490;-32
2022/11/04 15:08:48;;;;;;;85.93;61.40;;;23.10;60.60;;;;;;4806424;55;21133;-40
2022/11/04 15:13:55;;;;;;;91.07;63.87;;;23.10;60.40;;;;;;4823440;55;20987;-48
2022/11/04 15:18:58;;;;;;;84.05;61.35;;;23.10;60.40;;;;;;4859724;55;21185;-41
2022/11/04 15:24:00;;;;;;;84.60;61.58;;;23.10;60.50;;;;;;4774550;55;21058;-43
2022/11/04 15:29:07;;;;;;;85.40;62.35;;;23.10;60.40;;;;;;4852054;55;21015;-45
2022/11/04 15:34:11;;;;;;;81.55;58.97;;;23.20;60.50;;;;;;5018405;55;20990;-40
2022/11/04 15:40:13;;;;;;;85.22;60.80;;;23.10;60.40;;;;;;4745374;59;21460;-42
2022/11/04 15:45:37;;;;;;;86.75;62.10;;;23.10;60.40;;;;;;4777558;55;20990;-43
2022/11/04 15:50:38;;;;;;;83.15;58.40;;;23.10;60.40;;;;;;4776364;55;21471;-44
2022/11/04 15:55:39;;;;;;;83.90;61.13;;;23.10;60.40;;;;;;4779520;55;21050;-44
2022/11/04 16:00:42;;;;;;;84.90;60.63;;;23.10;60.40;;;;;;4934501;55;21512;-42
2022/11/04 16:05:43;;;;;;;81.20;58.83;;;23.10;60.50;;;;;;5064820;55;21137;-42
2022/11/04 16:10:44;;;;;;;87.80;61.20;;;23.10;60.40;;;;;;4880375;55;21002;-45
2022/11/04 16:16:26;;;;;;;85.03;60.38;;;23.10;60.40;;;;;;4797718;55;21049;-41
2022/11/04 16:21:35;;;;;;;80.38;58.60;;;23.10;60.30;;;;;;4828542;55;21459;-39
2022/11/04 16:26:44;;;;;;;81.82;60.03;;;23.10;60.40;;;;;;4812345;55;21037;-45
2022/11/04 16:31:45;;;;;;;82.47;60.28;;;23.00;60.50;;;;;;4744789;59;21002;-37
2022/11/04 16:36:45;;;;;;;85.32;60.17;;;23.10;60.40;;;;;;4744953;56;20998;-40
2022/11/04 16:41:46;;;;;;;84.62;60.05;;;23.10;60.40;;;;;;4807461;55;21002;-30
2022/11/04 16:46:47;;;;;;;82.60;60.50;;;23.10;60.40;;;;;;4744945;59;21011;-33
2022/11/04 16:51:59;;;;;;;81.43;61.30;;;23.10;60.40;;;;;;4905186;55;21038;-40
2022/11/04 16:57:01;;;;;;;86.22;62.58;;;23.20;60.20;;;;;;4806005;55;20994;-43
2022/11/04 17:02:39;;;;;;;86.10;63.75;;;23.10;60.40;;;;;;4745752;59;22191;-43
2022/11/04 17:07:40;;;;;;;78.93;60.65;;;23.10;60.40;;;;;;4827893;55;21579;-31
2022/11/04 17:12:42;;;;;;;83.28;61.95;;;23.10;60.40;;;;;;4745377;59;21014;-31
2022/11/04 17:17:44;;;;;;;84.13;62.83;;;23.10;60.40;;;;;;4800825;55;21022;-41
2022/11/04 17:22:46;;;;;;;82.20;62.17;;;23.10;60.30;;;;;;4745174;59;21058;-40
2022/11/04 17:27:47;;;;;;;86.43;64.15;;;23.00;60.20;;;;;;4810104;55;21093;-37
2022/11/04 17:32:49;;;;;;;84.47;62.15;;;23.10;60.20;;;;;;4985004;55;21022;-44
2022/11/04 17:37:51;;;;;;;82.65;64.18;;;23.10;60.20;;;;;;4937598;55;21018;-44
2022/11/04 17:48:14;;;;;;;88.55;63.67;;;23.10;60.20;;;;;;4744631;55;21011;-40
2022/11/04 17:53:14;;;;;;;82.70;62.97;;;23.00;60.10;;;;;;4989521;55;21471;-37
2022/11/04 17:58:15;;;;;;;82.97;62.38;;;23.00;60.10;;;;;;4745511;59;20994;-40
2022/11/04 18:03:16;;;;;;;87.75;65.05;;;23.10;60.20;;;;;;4900274;55;21002;-39
2022/11/04 18:08:17;;;;;;;85.35;64.82;;;23.20;60.10;;;;;;4882833;55;21010;-32
2022/11/04 18:13:18;;;;;;;81.95;62.53;;;23.00;60.10;;;;;;4814231;55;21151;-30
2022/11/04 18:18:19;;;;;;;83.37;65.10;;;23.10;60.10;;;;;;4921082;55;21081;-38
2022/11/04 18:23:21;;;;;;;85.15;65.07;;;23.10;60.10;;;;;;4745661;55;21546;-31
2022/11/04 18:28:22;;;;;;;83.70;62.85;;;23.00;60.10;;;;;;4744864;59;21496;-30
2022/11/04 18:33:23;;;;;;;86.95;65.03;;;23.00;60.00;;;;;;5015044;55;21005;-30
2022/11/04 18:38:24;;;;;;;86.50;64.62;;;23.00;60.10;;;;;;4786578;55;20998;-39
2022/11/04 18:43:24;;;;;;;81.63;62.25;;;23.00;60.00;;;;;;4771731;55;21026;-39
2022/11/04 18:48:25;;;;;;;83.15;64.10;;;23.00;60.00;;;;;;4893273;55;21496;-32
2022/11/04 18:53:26;;;;;;;81.05;63.47;;;23.00;60.00;;;;;;4762722;55;21021;-41
2022/11/04 18:58:31;;;;;;;83.90;63.28;;;23.00;60.00;;;;;;4808033;55;21070;-35
2022/11/04 19:03:34;;;;;;;83.70;62.85;;;23.00;60.00;;;;;;4745600;59;21595;-31
2022/11/04 19:08:35;;;;;;;82.75;64.30;;;23.00;60.00;;;;;;4745153;59;21614;-44
2022/11/04 19:13:35;;;;;;;83.22;63.08;;;23.00;59.90;;;;;;4780252;55;20990;-37
2022/11/04 19:18:37;;;;;;;86.28;67.12;;;23.00;59.90;;;;;;4831962;55;21592;-30
2022/11/04 19:23:38;;;;;;;84.65;66.30;;;23.00;60.00;;;;;;4825564;55;21070;-34
2022/11/04 19:28:40;;;;;;;84.25;64.22;;;23.00;59.90;;;;;;4903291;55;21014;-46
2022/11/04 19:33:41;;;;;;;85.85;64.95;;;23.00;60.00;;;;;;5198718;55;21022;-47
2022/11/04 19:38:43;;;;;;;85.45;64.43;;;23.00;60.00;;;;;;4910391;55;21022;-31
2022/11/04 19:43:43;;;;;;;81.53;63.40;;;23.00;60.00;;;;;;4929592;55;20989;-32
2022/11/04 19:48:44;;;;;;;83.25;64.03;;;23.00;60.00;;;;;;4878638;55;21495;-31
2022/11/04 19:53:45;;;;;;;80.25;62.17;;;23.00;60.00;;;;;;4745641;56;21116;-31
2022/11/04 19:58:46;;;;;;;83.37;62.42;;;23.00;60.00;;;;;;4847715;55;21065;-40
2022/11/04 20:03:47;;;;;;;80.43;61.60;;;23.00;60.50;;;;;;4931628;55;20994;-38
2022/11/04 20:08:48;;;;;;;77.22;59.70;;;23.00;59.90;;;;;;4744679;59;21014;-32
2022/11/04 20:13:50;;;;;;;79.87;60.78;;;23.00;60.00;;;;;;4888550;55;21057;-30
2022/11/04 20:19:00;;;;;;;77.05;60.08;;;23.20;60.10;;;;;;5054249;55;21495;-37
2022/11/04 20:24:06;;;;;;;81.75;60.25;;;23.00;60.00;;;;;;4771850;55;21508;-35
2022/11/04 20:29:07;;;;;;;76.68;59.38;;;23.00;60.00;;;;;;4972286;55;21128;-31
2022/11/04 20:34:10;;;;;;;76.50;57.28;;;23.00;59.90;;;;;;4745430;55;21631;-30
2022/11/04 20:39:17;;;;;;;75.90;58.47;;;23.00;59.90;;;;;;4745571;59;21536;-47
2022/11/04 20:44:17;;;;;;;75.37;58.30;;;23.00;59.90;;;;;;4745625;59;21006;-32
2022/11/04 20:49:19;;;;;;;75.53;57.92;;;23.00;59.90;;;;;;4823111;55;21010;-41
2022/11/04 20:54:20;;;;;;;73.70;56.88;;;23.00;59.80;;;;;;4745362;59;21002;-36
2022/11/04 20:59:21;;;;;;;72.75;55.97;;;23.00;59.80;;;;;;4852454;55;21480;-31
2022/11/04 21:04:22;;;;;;;71.20;54.58;;;23.00;59.80;;;;;;4834790;55;20998;-31
2022/11/04 21:09:23;;;;;;;73.55;55.83;;;23.00;59.80;;;;;;4766897;55;21525;-31
2022/11/04 21:14:23;;;;;;;68.60;55.03;;;23.00;59.90;;;;;;4745352;56;21061;-41
2022/11/04 21:19:24;;;;;;;70.62;53.42;;;23.00;59.80;;;;;;4744240;59;21026;-41
2022/11/04 21:24:25;;;;;;;71.40;53.50;;;23.00;59.70;;;;;;4975129;55;21049;-35
2022/11/04 21:29:26;;;;;;;71.53;53.80;;;23.00;59.70;;;;;;4843475;55;21010;-30
2022/11/04 21:34:27;;;;;;;70.18;53.90;;;23.00;59.80;;;;;;4885715;55;20989;-30
2022/11/04 21:39:28;;;;;;;66.45;53.70;;;23.00;59.80;;;;;;4745345;59;21011;-37
2022/11/04 21:44:28;;;;;;;63.90;50.85;;;23.00;59.70;;;;;;4745622;59;20999;-39
2022/11/04 21:49:29;;;;;;;61.47;48.63;;;23.00;59.80;;;;;;4788904;55;21028;-36
2022/11/04 21:54:30;;;;;;;59.72;48.85;;;23.00;59.80;;;;;;4745739;59;21002;-42
2022/11/04 21:59:31;;;;;;;61.45;48.85;;;23.00;59.70;;;;;;4771314;55;21070;-41
2022/11/04 22:04:32;;;;;;;62.47;49.67;;;23.00;59.80;;;;;;4745683;59;21547;-42
2022/11/04 22:09:33;;;;;;;60.88;48.05;;;23.00;59.90;;;;;;4744649;59;21013;-38
2022/11/04 22:14:33;;;;;;;56.55;46.95;;;23.00;59.80;;;;;;4745940;59;21850;-40
2022/11/04 22:19:34;;;;;;;59.30;46.60;;;23.00;59.80;;;;;;4797609;55;21073;-47
2022/11/04 22:24:35;;;;;;;55.47;45.53;;;23.00;59.80;;;;;;4926598;55;21049;-38
2022/11/04 22:29:36;;;;;;;56.37;46.17;;;23.00;59.80;;;;;;4901303;55;21025;-33
2022/11/04 22:34:36;;;;;;;58.67;46.08;;;23.10;59.90;;;;;;4987452;55;21539;-34
2022/11/04 22:39:37;;;;;;;56.40;43.38;;;23.00;59.80;;;;;;4763346;55;21021;-31
2022/11/04 22:44:38;;;;;;;55.28;43.90;;;23.00;59.80;;;;;;5069382;55;21053;-34
2022/11/04 22:49:39;;;;;;;54.38;42.70;;;23.00;59.90;;;;;;4744636;59;21062;-33
2022/11/04 22:54:40;;;;;;;51.63;42.83;;;23.00;59.80;;;;;;5016438;55;21066;-35
2022/11/04 22:59:40;;;;;;;53.50;41.85;;;22.90;59.80;;;;;;4972149;55;21018;-33
2022/11/04 23:04:41;;;;;;;53.67;42.28;;;23.00;59.90;;;;;;4745582;59;21010;-33
2022/11/04 23:20:26;;;;;;;52.30;41.60;;;22.90;59.70;;;;;;4744353;55;21086;-38
2022/11/04 23:25:27;;;;;;;48.40;39.77;;;22.90;59.90;;;;;;4882835;55;21461;-41
2022/11/04 23:30:31;;;;;;;48.90;39.90;;;22.90;59.90;;;;;;4796401;55;21543;-37
